LETOLEAB

Guest
Details From LETO - Torrejon
To LEAB - Albacete
Flight Number -
Tags generated
Created
Modified
Stats Distance 119 nm / 221 km
Max Altitude 8,200 ft / 2,499 m
Waypoints 3
Social Downloads 0
Likes 0
Share VATSIM

Download

Looking for another format? Having issues loading an existing format? Contact us
Advertisement - Login to hide

Notes

Basic altitude profile: - Ascent Rate: 1000ft/min - Ascent Speed: 150kts - Cruise Altitude: 12000ft - Cruise Speed: 180kts - Descent Rate: 1000ft/min - Descent Speed: 150kts Options: - Use NATs: yes - Use PACOTS: yes - Use low airways: yes - Use high airways: yes

Route

LETO PALIO LEAB

ID Type Via Altitude Latitude Longitude Leg Dist Tot Dist Heading (true) Name
O LETO APT - 0 ft / 0 m 40.49675˚ -3.44587˚ - 0 nm - Torrejon
PALIO FIX - 8,200 ft / 2,499 m 40.26216˚ -3.04831˚ 23 nm 23 nm 128° / 128° -
O LEAB APT - 0 ft / 0 m 38.94853˚ -1.86350˚ 96 nm 119 nm 145° / 146° Albacete

Altitude Profile

Advertisement - Login to hide

LETO

Details ICAO LETO (TOJ)
Name Torrejon
Region Spain
Timezone Europe/Madrid (UTC+1.0)
Stats Elevation 2,025 ft / 617 m (AMSL)
Location 40.496746° -3.445870°
Runways 1
Magnetic Variation 0.652° W

METAR

LETO 172100Z 36003KT CAVOK 01/M02 Q1032 NOSIG

Decode

TAF

TAF LETO 171700Z 1718/1818 VRB05KT CAVOK TX11/1815Z TNM03/1807Z

Decode

Departure Runways

ID Width Length Bearing (true) Bearing (mag) Surface Threshold Offset Overrun Length
05 217 ft / 66 m 12,004 ft / 3,659 m 43.28° 43.93° Asphalt 0 ft / 0 m 2,739 ft / 835 m
23 217 ft / 66 m 12,004 ft / 3,659 m 223.30° 223.95° Asphalt 0 ft / 0 m 1,066 ft / 325 m

LEAB

Details ICAO LEAB
Name Albacete
Region Spain
Timezone Europe/Madrid (UTC+1.0)
Stats Elevation 2,301 ft / 701 m (AMSL)
Location 38.948527° -1.863500°
Runways 1
Magnetic Variation 0.167° W

METAR

LEAB 172100Z VRB03KT CAVOK M01/M03 Q1031 NOSIG

Decode

TAF

Not found

Destination Runways

ID Width Length Bearing (true) Bearing (mag) Surface Threshold Offset Overrun Length
09 197 ft / 60 m 8,839 ft / 2,694 m 87.36° 87.53° Asphalt 0 ft / 0 m 1,247 ft / 380 m
27 197 ft / 60 m 8,839 ft / 2,694 m 267.38° 267.55° Asphalt 0 ft / 0 m 1,247 ft / 380 m

Approach Navaids

Runway Type Ident Frequency Range Bearing (true) Bearing (mag) Slope Elevation
09 Localiser IABT 110.70 MHz 18 nm / 33 km 87.74° 87.90° - 2,301 ft / 701 m (AMSL)
09 Glidescope IABT 110.70 MHz 10 nm / 19 km 87.37° 87.54° 2.50° 2,301 ft / 701 m (AMSL)
09 DME IABT 110.70 MHz 18 nm / 33 km - - - 2,301 ft / 701 m (AMSL)
27 Localiser IAE 109.70 MHz 18 nm / 33 km 267.40° 267.57° - 2,301 ft / 701 m (AMSL)
27 Glidescope IAE 109.70 MHz 10 nm / 19 km 267.37° 267.54° 3.00° 2,301 ft / 701 m (AMSL)
27 DME IAE 109.70 MHz 18 nm / 33 km - - - 2,301 ft / 701 m (AMSL)